createdAt,value
2022-09-23T00:02:06.552Z,4.13
2022-09-23T00:04:33.182Z,4.60
2022-09-23T00:06:59.653Z,4.20
2022-09-23T00:09:26.145Z,4.50
2022-09-23T00:11:52.610Z,4.10
2022-09-23T00:14:19.091Z,4.03
2022-09-23T00:16:45.611Z,4.10
2022-09-23T00:19:12.129Z,3.95
2022-09-23T00:21:38.609Z,4.20
2022-09-23T00:24:05.321Z,3.67
2022-09-23T00:26:31.846Z,4.00
2022-09-23T00:28:58.419Z,3.88
2022-09-23T00:31:27.312Z,4.15
2022-09-23T00:33:56.701Z,4.28
2022-09-23T00:36:23.860Z,3.90
2022-09-23T00:38:50.373Z,3.33
2022-09-23T00:41:17.188Z,3.50
2022-09-23T00:43:52.213Z,3.47
2022-09-23T00:46:23.463Z,3.80
2022-09-23T00:48:55.360Z,3.90
2022-09-23T00:51:24.823Z,3.83
2022-09-23T00:53:53.455Z,3.30
2022-09-23T00:56:23.018Z,3.33
2022-09-23T00:58:51.778Z,3.50
2022-09-23T01:01:19.815Z,3.70
2022-09-23T01:03:46.721Z,3.67
2022-09-23T01:06:13.894Z,3.20
2022-09-23T01:08:44.205Z,3.47
2022-09-23T01:11:28.114Z,3.45
2022-09-23T01:14:13.308Z,3.47
2022-09-23T01:16:54.574Z,3.28
2022-09-23T01:19:36.500Z,3.60
2022-09-23T01:22:13.391Z,3.78
2022-09-23T01:25:13.153Z,3.00
2022-09-23T01:27:47.575Z,3.60
2022-09-23T01:30:38.695Z,3.33
2022-09-23T01:33:06.210Z,3.17
2022-09-23T01:35:52.285Z,3.42
2022-09-23T01:38:36.268Z,3.45
2022-09-23T01:41:16.255Z,3.07
2022-09-23T01:43:46.744Z,3.50
2022-09-23T01:46:27.980Z,3.22
2022-09-23T01:49:03.983Z,3.50
2022-09-23T01:51:37.462Z,3.70
2022-09-23T01:54:19.922Z,3.70
2022-09-23T01:56:54.645Z,3.65
2022-09-23T01:59:27.891Z,3.33
2022-09-23T02:02:02.989Z,3.28
2022-09-23T02:04:39.842Z,2.88
2022-09-23T02:07:21.392Z,3.40
2022-09-23T02:09:56.188Z,3.17
2022-09-23T02:12:29.513Z,2.80
2022-09-23T02:15:06.356Z,3.65
2022-09-23T02:17:40.171Z,3.20
2022-09-23T02:20:08.589Z,2.80
2022-09-23T02:22:41.163Z,2.72
2022-09-23T02:25:10.641Z,2.70
2022-09-23T02:27:41.323Z,2.72
2022-09-23T02:30:12.982Z,2.70
2022-09-23T02:32:51.894Z,2.83
2022-09-23T02:35:32.861Z,2.40
2022-09-23T02:38:18.755Z,2.80
2022-09-23T02:40:46.213Z,2.53
2022-09-23T02:43:19.882Z,2.47
2022-09-23T02:45:47.384Z,2.70
2022-09-23T02:48:19.415Z,2.85
2022-09-23T02:50:47.705Z,2.40
2022-09-23T02:53:16.170Z,2.80
2022-09-23T02:55:42.991Z,2.58
2022-09-23T02:58:12.888Z,2.97
2022-09-23T03:00:57.401Z,2.60
2022-09-23T03:04:05.307Z,2.95
2022-09-23T03:06:44.605Z,2.90
2022-09-23T03:09:21.584Z,2.85
2022-09-23T03:11:53.198Z,3.20
2022-09-23T03:14:22.673Z,3.00
2022-09-23T03:17:04.694Z,3.08
2022-09-23T03:19:38.093Z,2.95
2022-09-23T03:22:27.671Z,3.15
2022-09-23T03:24:58.590Z,3.43
2022-09-23T03:27:30.104Z,3.30
2022-09-23T03:29:57.552Z,3.13
2022-09-23T03:32:27.970Z,3.38
2022-09-23T03:34:58.340Z,3.25
2022-09-23T03:37:32.429Z,3.33
2022-09-23T03:40:09.345Z,3.13
2022-09-23T03:42:38.170Z,3.05
2022-09-23T03:45:10.583Z,3.08
2022-09-23T03:47:39.337Z,3.65
2022-09-23T03:50:06.426Z,3.17
2022-09-23T03:52:32.883Z,3.35
2022-09-23T03:54:59.453Z,3.40
2022-09-23T03:57:26.094Z,3.33
2022-09-23T03:59:52.916Z,3.40
2022-09-23T04:02:20.548Z,3.70
2022-09-23T04:04:47.308Z,3.20
2022-09-23T04:07:14.747Z,3.22
2022-09-23T04:09:41.632Z,3.42
2022-09-23T04:12:11.719Z,3.55
2022-09-23T04:14:38.382Z,3.37
2022-09-23T04:17:05.049Z,3.40
2022-09-23T04:19:31.526Z,3.13
2022-09-23T04:21:58.092Z,3.35
2022-09-23T04:24:24.671Z,3.70
2022-09-23T04:26:53.476Z,3.43
2022-09-23T04:29:20.625Z,3.50
2022-09-23T04:31:47.807Z,4.10
2022-09-23T04:34:15.954Z,3.67
2022-09-23T04:36:42.828Z,3.72
2022-09-23T04:39:09.327Z,3.47
2022-09-23T04:41:35.904Z,3.70
2022-09-23T04:44:02.838Z,3.40
2022-09-23T04:46:29.472Z,3.75
2022-09-23T04:48:55.957Z,3.42
2022-09-23T04:51:24.852Z,4.00
2022-09-23T04:53:53.116Z,3.78
2022-09-23T04:56:22.742Z,3.83
2022-09-23T04:58:50.737Z,3.53
2022-09-23T05:01:25.690Z,3.58
2022-09-23T05:03:54.359Z,3.30
2022-09-23T05:06:22.020Z,3.35
2022-09-23T05:08:51.056Z,3.35
2022-09-23T05:11:18.724Z,3.67
2022-09-23T05:13:50.497Z,4.05
2022-09-23T05:16:17.805Z,4.17
2022-09-23T05:18:45.903Z,5.28
2022-09-23T05:21:14.261Z,5.35
2022-09-23T05:23:41.987Z,5.53
2022-09-23T05:26:11.181Z,6.93
2022-09-23T05:28:39.340Z,5.47
2022-09-23T05:31:08.746Z,5.60
2022-09-23T05:33:37.005Z,7.32
2022-09-23T05:36:04.143Z,5.80
2022-09-23T05:38:31.763Z,6.20
2022-09-23T05:41:00.253Z,8.90
2022-09-23T05:43:27.416Z,7.32
2022-09-23T05:46:07.745Z,6.20
2022-09-23T05:48:35.910Z,5.13
2022-09-23T05:51:03.026Z,4.85
2022-09-23T05:53:31.736Z,5.17
2022-09-23T05:55:58.322Z,5.18
2022-09-23T05:58:25.468Z,5.90
2022-09-23T06:00:52.353Z,5.50
2022-09-23T06:03:20.613Z,4.93
2022-09-23T06:05:48.466Z,4.83
2022-09-23T06:08:15.457Z,5.55
2022-09-23T06:10:44.646Z,5.78
2022-09-23T06:13:11.583Z,4.75
2022-09-23T06:15:39.302Z,4.75
2022-09-23T06:18:06.617Z,5.20
2022-09-23T06:20:35.478Z,5.03
2022-09-23T06:23:08.810Z,5.68
2022-09-23T06:25:39.434Z,5.10
2022-09-23T06:28:11.301Z,4.93
2022-09-23T06:30:39.356Z,5.63
2022-09-23T06:33:05.853Z,7.47
2022-09-23T06:35:33.374Z,6.28
2022-09-23T06:38:03.828Z,5.97
2022-09-23T06:40:31.382Z,5.45
2022-09-23T06:43:00.986Z,5.53
2022-09-23T06:45:28.613Z,5.60
2022-09-23T06:47:56.768Z,5.53
2022-09-23T06:50:26.364Z,7.30
2022-09-23T06:52:56.082Z,6.45
2022-09-23T06:55:24.865Z,13.60
2022-09-23T06:57:51.437Z,18.50
2022-09-23T07:00:18.398Z,13.00
2022-09-23T07:02:45.198Z,14.60
2022-09-23T07:05:12.216Z,8.50
2022-09-23T07:07:39.423Z,9.37
2022-09-23T07:10:06.808Z,11.27
2022-09-23T07:12:34.221Z,9.13
2022-09-23T07:15:01.017Z,8.45
2022-09-23T07:17:27.907Z,7.70
2022-09-23T07:19:55.051Z,7.57
2022-09-23T07:22:23.357Z,7.70
2022-09-23T07:24:49.948Z,7.95
2022-09-23T07:27:19.399Z,7.95
2022-09-23T07:29:48.987Z,7.90
2022-09-23T07:32:16.699Z,7.60
2022-09-23T07:34:43.339Z,7.65
2022-09-23T07:37:10.661Z,8.68
2022-09-23T07:39:37.457Z,8.55
2022-09-23T07:42:05.294Z,8.68
2022-09-23T07:44:33.034Z,9.00
2022-09-23T07:47:00.419Z,8.35
2022-09-23T07:49:27.706Z,9.30
2022-09-23T07:51:54.265Z,8.35
2022-09-23T07:54:21.538Z,8.95
2022-09-23T07:56:48.209Z,8.73
2022-09-23T07:59:18.231Z,8.90
2022-09-23T08:01:48.477Z,9.20
2022-09-23T08:04:23.015Z,8.98
2022-09-23T08:06:55.100Z,8.00
2022-09-23T08:09:25.250Z,8.03
2022-09-23T08:11:52.530Z,7.93
2022-09-23T08:14:19.333Z,8.25
2022-09-23T08:16:47.194Z,7.90
2022-09-23T08:19:14.663Z,8.48
2022-09-23T08:21:41.996Z,7.20
2022-09-23T08:24:12.621Z,7.95
2022-09-23T08:26:39.175Z,7.88
2022-09-23T08:29:06.867Z,7.20
2022-09-23T08:31:33.493Z,7.97
2022-09-23T08:34:00.208Z,7.63
2022-09-23T08:36:27.187Z,7.63
2022-09-23T08:38:55.310Z,7.43
2022-09-23T08:41:28.049Z,7.95
2022-09-23T08:43:59.402Z,6.85
2022-09-23T08:46:31.849Z,7.43
2022-09-23T08:49:00.412Z,7.50
2022-09-23T08:51:44.744Z,7.05
2022-09-23T08:54:12.789Z,6.28
2022-09-23T08:56:43.581Z,6.55
2022-09-23T08:59:21.258Z,6.47
2022-09-23T09:01:56.996Z,6.10
2022-09-23T09:04:46.097Z,5.72
2022-09-23T09:10:14.543Z,5.30
2022-09-23T09:12:49.382Z,5.50
2022-09-23T09:15:24.637Z,5.38
2022-09-23T09:18:08.033Z,6.10
2022-09-23T09:20:40.214Z,5.80
2022-09-23T09:23:21.601Z,5.45
2022-09-23T09:25:50.923Z,5.13
2022-09-23T09:28:31.092Z,5.00
2022-09-23T09:31:01.609Z,4.97
2022-09-23T09:33:38.335Z,5.47
2022-09-23T09:36:20.877Z,4.35
2022-09-23T09:38:47.408Z,4.53
2022-09-23T09:41:17.861Z,4.88
2022-09-23T09:43:56.358Z,4.45
2022-09-23T09:46:24.951Z,4.85
2022-09-23T09:48:53.665Z,5.07
2022-09-23T09:51:22.490Z,4.57
2022-09-23T09:53:52.135Z,4.93
2022-09-23T09:56:26.840Z,4.80
2022-09-23T09:58:58.703Z,4.28
2022-09-23T10:01:28.873Z,4.40
2022-09-23T10:03:59.501Z,4.93
2022-09-23T10:06:32.591Z,4.35
2022-09-23T10:09:03.314Z,4.75
2022-09-23T10:11:31.082Z,4.45
2022-09-23T10:14:01.121Z,4.20
2022-09-23T10:16:31.620Z,4.27
2022-09-23T10:19:00.410Z,4.13
2022-09-23T10:21:34.761Z,4.43
2022-09-23T10:24:05.616Z,4.00
2022-09-23T10:26:42.624Z,4.43
2022-09-23T10:29:24.274Z,4.00
2022-09-23T10:32:22.611Z,3.55
2022-09-23T10:35:08.994Z,3.28
2022-09-23T10:38:33.611Z,3.45
2022-09-23T10:41:20.840Z,3.20
2022-09-23T10:44:11.662Z,2.63
2022-09-23T10:46:47.147Z,3.35
2022-09-23T10:49:41.170Z,2.75
2022-09-23T10:52:15.044Z,2.83
2022-09-23T10:55:00.908Z,3.00
2022-09-23T10:57:46.996Z,2.87
2022-09-23T11:00:22.228Z,3.20
2022-09-23T11:03:00.307Z,3.53
2022-09-23T11:05:41.416Z,3.50
2022-09-23T11:08:36.394Z,3.75
2022-09-23T11:11:18.880Z,3.43
2022-09-23T11:14:08.106Z,3.42
2022-09-23T11:16:43.086Z,3.50
2022-09-23T11:19:26.387Z,3.55
2022-09-23T11:21:56.145Z,2.78
2022-09-23T11:24:58.624Z,3.27
2022-09-23T11:27:47.128Z,3.55
2022-09-23T11:30:20.160Z,3.42
2022-09-23T11:35:47.729Z,3.90
2022-09-23T11:38:21.411Z,3.57
2022-09-23T11:40:54.771Z,3.40
2022-09-23T11:43:29.229Z,3.80
2022-09-23T11:46:10.548Z,3.45
2022-09-23T11:48:45.755Z,3.08
2022-09-23T11:51:17.958Z,3.30
2022-09-23T11:53:47.373Z,3.22
2022-09-23T11:56:35.496Z,3.78
2022-09-23T11:59:36.123Z,3.38
2022-09-23T12:02:20.747Z,3.58
2022-09-23T12:04:58.648Z,3.20
2022-09-23T12:07:44.527Z,3.10
2022-09-23T12:10:11.983Z,3.08
2022-09-23T12:12:58.404Z,3.20
2022-09-23T12:15:37.407Z,3.20
2022-09-23T12:18:11.473Z,2.70
2022-09-23T12:21:02.896Z,2.70
2022-09-23T12:23:41.835Z,2.83
2022-09-23T12:26:17.271Z,2.22
2022-09-23T12:28:49.032Z,2.25
2022-09-23T12:31:21.911Z,2.10
2022-09-23T12:33:55.147Z,1.85
2022-09-23T12:36:29.784Z,2.00
2022-09-23T12:39:16.270Z,1.85
2022-09-23T12:41:46.349Z,2.28
2022-09-23T12:44:14.788Z,1.50
2022-09-23T12:46:43.725Z,1.70
2022-09-23T12:49:30.068Z,1.40
2022-09-23T12:52:27.056Z,1.23
2022-09-23T12:55:19.036Z,1.60
2022-09-23T12:57:45.690Z,1.70
2022-09-23T13:00:13.535Z,1.30
2022-09-23T13:03:10.759Z,1.77
2022-09-23T13:06:09.263Z,1.33
2022-09-23T13:08:39.083Z,1.52
2022-09-23T13:11:14.889Z,1.60
2022-09-23T13:13:44.654Z,1.73
2022-09-23T13:16:29.295Z,2.03
2022-09-23T13:19:03.338Z,2.00
2022-09-23T13:21:43.079Z,1.80
2022-09-23T13:24:13.693Z,1.83
2022-09-23T13:26:45.789Z,1.75
2022-09-23T13:29:20.711Z,2.00
2022-09-23T13:31:47.762Z,1.40
2022-09-23T13:34:19.633Z,1.83
2022-09-23T13:36:48.128Z,1.50
2022-09-23T13:39:22.601Z,1.60
2022-09-23T13:41:51.905Z,1.60
2022-09-23T13:44:20.179Z,1.60
2022-09-23T13:46:51.450Z,1.50
2022-09-23T13:49:24.402Z,1.23
2022-09-23T13:51:53.482Z,1.77
2022-09-23T13:54:33.441Z,1.85
2022-09-23T13:57:00.548Z,1.88
2022-09-23T13:59:30.239Z,1.88
2022-09-23T14:02:06.863Z,2.03
2022-09-23T14:04:33.524Z,1.92
2022-09-23T14:07:01.505Z,2.10
2022-09-23T14:09:30.328Z,1.98
2022-09-23T14:11:59.677Z,2.53
2022-09-23T14:14:28.152Z,2.17
2022-09-23T14:16:56.149Z,2.65
2022-09-23T14:19:24.859Z,2.40
2022-09-23T14:21:53.741Z,2.40
2022-09-23T14:24:30.464Z,2.00
2022-09-23T14:27:10.900Z,2.47
2022-09-23T14:29:40.488Z,1.77
2022-09-23T14:32:13.473Z,1.65
2022-09-23T14:34:43.949Z,2.22
2022-09-23T14:37:42.636Z,4.50
2022-09-23T14:40:19.023Z,3.67
2022-09-23T14:42:51.434Z,3.00
2022-09-23T14:45:24.637Z,2.95
2022-09-23T14:47:58.033Z,2.67
2022-09-23T14:50:37.127Z,3.20
2022-09-23T14:53:04.736Z,2.37
2022-09-23T14:55:31.520Z,1.95
2022-09-23T14:58:05.159Z,2.95
2022-09-23T15:00:32.151Z,2.58
2022-09-23T15:03:02.702Z,2.92
2022-09-23T15:05:40.246Z,2.90
2022-09-23T15:08:07.398Z,2.90
2022-09-23T15:10:37.582Z,2.53
2022-09-23T15:13:11.534Z,2.83
2022-09-23T15:15:38.297Z,4.35
2022-09-23T15:18:11.332Z,3.60
2022-09-23T15:20:37.990Z,3.45
2022-09-23T15:23:04.562Z,3.15
2022-09-23T15:25:40.273Z,3.10
2022-09-23T15:28:10.671Z,3.03
2022-09-23T15:30:39.041Z,3.00
2022-09-23T15:33:06.392Z,2.88
2022-09-23T15:35:33.403Z,2.95
2022-09-23T15:38:02.760Z,3.20
2022-09-23T15:40:33.805Z,3.15
2022-09-23T15:43:07.625Z,2.80
2022-09-23T15:45:38.431Z,2.60
2022-09-23T15:48:10.753Z,2.90
2022-09-23T15:50:38.080Z,2.88
2022-09-23T15:53:07.286Z,2.65
2022-09-23T15:55:35.965Z,2.70
2022-09-23T15:58:03.143Z,2.70
2022-09-23T16:00:30.606Z,3.00
2022-09-23T16:02:57.234Z,2.70
2022-09-23T16:05:33.143Z,3.08
2022-09-23T16:08:03.727Z,2.70
2022-09-23T16:10:34.081Z,3.10
2022-09-23T16:13:03.026Z,3.10
2022-09-23T16:15:31.808Z,2.95
2022-09-23T16:20:50.262Z,2.97
2022-09-23T16:23:34.459Z,3.78
2022-09-23T16:26:21.804Z,3.50
2022-09-23T16:28:50.017Z,3.28
2022-09-23T16:31:16.637Z,3.10
2022-09-23T16:33:44.307Z,3.87
2022-09-23T16:36:31.969Z,3.83
2022-09-23T16:39:01.594Z,4.65
2022-09-23T16:41:29.748Z,4.70
2022-09-23T16:43:56.892Z,4.63
2022-09-23T16:46:24.890Z,4.60
2022-09-23T16:48:53.770Z,4.90
2022-09-23T16:51:23.894Z,5.40
2022-09-23T16:53:52.549Z,5.57
2022-09-23T16:56:25.810Z,5.47
2022-09-23T16:58:55.773Z,5.47
2022-09-23T17:01:44.319Z,5.68
2022-09-23T17:04:12.069Z,5.97
2022-09-23T17:07:02.731Z,6.20
2022-09-23T17:09:30.397Z,6.15
2022-09-23T17:12:09.357Z,5.90
2022-09-23T17:14:35.877Z,5.65
2022-09-23T17:17:02.457Z,6.55
2022-09-23T17:19:29.347Z,6.20
2022-09-23T17:21:56.360Z,6.53
2022-09-23T17:24:24.082Z,7.13
2022-09-23T17:26:53.381Z,6.53
2022-09-23T17:29:20.489Z,6.80
2022-09-23T17:31:47.221Z,7.95
2022-09-23T17:34:13.921Z,7.30
2022-09-23T17:36:40.616Z,7.43
2022-09-23T17:39:07.491Z,7.80
2022-09-23T17:41:34.203Z,7.00
2022-09-23T17:44:00.990Z,8.38
2022-09-23T17:46:30.091Z,7.25
2022-09-23T17:48:57.200Z,7.63
2022-09-23T17:51:25.347Z,8.25
2022-09-23T17:53:52.301Z,7.95
2022-09-23T17:56:26.556Z,8.15
2022-09-23T17:58:53.889Z,7.50
2022-09-23T18:01:23.952Z,8.57
2022-09-23T18:03:56.363Z,8.10
2022-09-23T18:06:25.653Z,8.77
2022-09-23T18:08:52.727Z,8.57
2022-09-23T18:11:21.177Z,8.75
2022-09-23T18:13:51.172Z,9.03
2022-09-23T18:16:18.351Z,8.80
2022-09-23T18:18:50.238Z,8.75
2022-09-23T18:21:16.878Z,9.73
2022-09-23T18:23:43.434Z,9.23
2022-09-23T18:26:15.419Z,9.37
2022-09-23T18:28:43.121Z,9.18
2022-09-23T18:31:10.844Z,9.18
2022-09-23T18:33:39.227Z,9.00
2022-09-23T18:36:06.211Z,9.48
2022-09-23T18:38:33.335Z,9.70
2022-09-23T18:41:00.560Z,9.63
2022-09-23T18:43:40.752Z,9.98
2022-09-23T18:46:13.435Z,10.80
2022-09-23T18:49:19.021Z,9.65
2022-09-23T18:51:50.979Z,10.60
2022-09-23T18:54:19.452Z,11.35
2022-09-23T18:56:47.767Z,11.00
2022-09-23T18:59:17.755Z,10.18
2022-09-23T19:01:45.934Z,10.70
2022-09-23T19:04:16.110Z,10.97
2022-09-23T19:06:42.783Z,11.93
2022-09-23T19:09:09.395Z,12.05
2022-09-23T19:11:36.573Z,11.05
2022-09-23T19:14:05.892Z,18.08
2022-09-23T19:16:34.182Z,16.30
2022-09-23T19:19:02.111Z,15.20
2022-09-23T19:21:30.877Z,15.07
2022-09-23T19:24:03.714Z,13.75
2022-09-23T19:26:34.296Z,13.32
2022-09-23T19:29:03.419Z,13.00
2022-09-23T19:31:33.487Z,13.48
2022-09-23T19:34:04.564Z,13.77
2022-09-23T19:36:34.614Z,13.27
2022-09-23T19:39:03.945Z,13.70
2022-09-23T19:41:32.164Z,13.33
2022-09-23T19:44:03.635Z,13.82
2022-09-23T19:46:32.046Z,12.80
2022-09-23T19:49:00.171Z,12.77
2022-09-23T19:51:27.550Z,12.85
2022-09-23T19:53:54.169Z,12.60
2022-09-23T19:56:20.684Z,13.07
2022-09-23T19:58:54.227Z,13.00
2022-09-23T20:01:21.935Z,12.63
2022-09-23T20:03:49.064Z,12.73
2022-09-23T20:06:16.652Z,12.80
2022-09-23T20:08:45.577Z,12.90
2022-09-23T20:11:15.000Z,12.93
2022-09-23T20:13:44.016Z,13.43
2022-09-23T20:16:13.919Z,12.93
2022-09-23T20:18:41.843Z,12.57
2022-09-23T20:21:11.947Z,13.05
2022-09-23T20:23:38.559Z,12.90
2022-09-23T20:26:24.540Z,12.95
2022-09-23T20:28:51.354Z,13.57
2022-09-23T20:31:20.790Z,13.00
2022-09-23T20:33:54.208Z,13.48
2022-09-23T20:36:21.605Z,13.25
2022-09-23T20:38:48.337Z,13.48
2022-09-23T20:41:17.221Z,13.73
2022-09-23T20:43:43.839Z,12.67
2022-09-23T20:46:10.356Z,13.18
2022-09-23T20:48:37.886Z,13.30
2022-09-23T20:51:06.847Z,12.93
2022-09-23T20:53:34.502Z,14.05
2022-09-23T20:56:01.527Z,14.33
2022-09-23T20:58:30.775Z,14.02
2022-09-23T21:01:05.603Z,14.65
2022-09-23T21:03:32.838Z,14.30
2022-09-23T21:06:06.932Z,13.90
2022-09-23T21:08:35.507Z,15.33
2022-09-23T21:11:04.955Z,14.18
2022-09-23T21:13:33.631Z,14.50
2022-09-23T21:16:05.589Z,14.73
2022-09-23T21:18:32.224Z,14.73
2022-09-23T21:21:00.855Z,13.87
2022-09-23T21:23:29.303Z,15.25
2022-09-23T21:26:07.477Z,15.32
2022-09-23T21:28:37.108Z,14.20
2022-09-23T21:31:06.972Z,14.15
2022-09-23T21:33:36.617Z,15.07
2022-09-23T21:36:05.652Z,14.20
2022-09-23T21:38:36.641Z,14.80
2022-09-23T21:41:06.668Z,14.48
2022-09-23T21:43:35.167Z,13.77
2022-09-23T21:46:05.112Z,14.73
2022-09-23T21:48:33.875Z,14.02
2022-09-23T21:51:04.570Z,14.60
2022-09-23T21:53:33.113Z,14.25
2022-09-23T21:56:03.570Z,14.25
2022-09-23T21:58:32.016Z,14.07
2022-09-23T22:00:58.873Z,14.10
2022-09-23T22:03:25.747Z,13.27
2022-09-23T22:06:03.809Z,13.57
2022-09-23T22:08:36.749Z,13.38
2022-09-23T22:11:05.682Z,13.70
2022-09-23T22:13:32.537Z,13.98
2022-09-23T22:16:02.218Z,15.18
2022-09-23T22:18:28.765Z,13.98
2022-09-23T22:20:57.795Z,13.00
2022-09-23T22:23:24.968Z,14.37
2022-09-23T22:26:02.122Z,13.68
2022-09-23T22:28:50.331Z,13.77
2022-09-23T22:31:35.589Z,13.60
2022-09-23T22:34:02.107Z,14.57
2022-09-23T22:36:28.599Z,13.53
2022-09-23T22:38:59.031Z,14.32
2022-09-23T22:41:26.279Z,14.57
2022-09-23T22:43:53.858Z,14.27
2022-09-23T22:46:22.745Z,13.77
2022-09-23T22:48:52.215Z,14.30
2022-09-23T22:51:22.224Z,14.20
2022-09-23T22:53:49.489Z,13.82
2022-09-23T22:56:16.197Z,13.65
2022-09-23T22:58:42.972Z,14.05
2022-09-23T23:01:11.803Z,14.10
2022-09-23T23:03:40.297Z,13.45
2022-09-23T23:06:08.808Z,14.90
2022-09-23T23:08:36.181Z,14.77
2022-09-23T23:11:09.957Z,14.65
2022-09-23T23:13:39.186Z,14.90
2022-09-23T23:16:07.187Z,14.50
2022-09-23T23:18:35.752Z,14.95
2022-09-23T23:21:08.798Z,15.30
2022-09-23T23:23:38.425Z,14.65
2022-09-23T23:26:09.821Z,15.70
2022-09-23T23:28:36.511Z,14.90
2022-09-23T23:31:04.795Z,15.00
2022-09-23T23:33:31.648Z,16.30
2022-09-23T23:35:58.125Z,15.23
2022-09-23T23:38:24.903Z,16.33
2022-09-23T23:40:52.599Z,16.10
2022-09-23T23:43:19.820Z,15.75
2022-09-23T23:45:46.596Z,15.43
2022-09-23T23:48:13.529Z,16.27
2022-09-23T23:50:40.074Z,16.53
2022-09-23T23:53:06.593Z,15.95
2022-09-23T23:55:38.126Z,16.83
2022-09-23T23:58:04.592Z,17.17
